sensor_id;sensor_type;location;lat;lon;timestamp;pressure;altitude;pressure_sealevel;temperature;humidity
3142;BME280;1581;51.568;6.998;2023-04-27T00:01:44;101271.31;;;6.58;100.00
3142;BME280;1581;51.568;6.998;2023-04-27T00:04:14;101278.81;;;6.63;100.00
3142;BME280;1581;51.568;6.998;2023-04-27T00:06:43;101272.34;;;6.48;100.00
3142;BME280;1581;51.568;6.998;2023-04-27T00:09:11;101274.78;;;6.41;100.00
3142;BME280;1581;51.568;6.998;2023-04-27T00:11:39;101277.72;;;6.38;100.00
3142;BME280;1581;51.568;6.998;2023-04-27T00:14:07;101274.44;;;6.27;100.00
3142;BME280;1581;51.568;6.998;2023-04-27T00:16:36;101277.25;;;6.25;100.00
3142;BME280;1581;51.568;6.998;2023-04-27T00:19:04;101287.66;;;6.27;100.00
3142;BME280;1581;51.568;6.998;2023-04-27T00:21:33;101286.97;;;6.25;100.00
3142;BME280;1581;51.568;6.998;2023-04-27T00:24:01;101286.59;;;6.20;100.00
3142;BME280;1581;51.568;6.998;2023-04-27T00:26:29;101292.28;;;6.25;100.00
3142;BME280;1581;51.568;6.998;2023-04-27T00:28:57;101288.50;;;6.00;100.00
3142;BME280;1581;51.568;6.998;2023-04-27T00:31:25;101292.00;;;6.01;100.00
3142;BME280;1581;51.568;6.998;2023-04-27T00:33:53;101286.00;;;5.99;100.00
3142;BME280;1581;51.568;6.998;2023-04-27T00:36:20;101289.78;;;5.97;100.00
3142;BME280;1581;51.568;6.998;2023-04-27T00:38:50;101290.47;;;5.98;100.00
3142;BME280;1581;51.568;6.998;2023-04-27T00:41:18;101295.22;;;5.95;100.00
3142;BME280;1581;51.568;6.998;2023-04-27T00:43:46;101290.69;;;5.78;100.00
3142;BME280;1581;51.568;6.998;2023-04-27T00:46:14;101302.09;;;5.69;100.00
3142;BME280;1581;51.568;6.998;2023-04-27T00:48:44;101308.09;;;5.71;100.00
3142;BME280;1581;51.568;6.998;2023-04-27T00:51:13;101305.34;;;5.63;100.00
3142;BME280;1581;51.568;6.998;2023-04-27T00:53:41;101298.50;;;5.61;100.00
3142;BME280;1581;51.568;6.998;2023-04-27T00:56:12;101296.44;;;5.45;100.00
3142;BME280;1581;51.568;6.998;2023-04-27T00:58:40;101298.22;;;5.54;100.00
3142;BME280;1581;51.568;6.998;2023-04-27T01:01:09;101306.16;;;5.54;100.00
3142;BME280;1581;51.568;6.998;2023-04-27T01:03:37;101302.72;;;5.44;100.00
3142;BME280;1581;51.568;6.998;2023-04-27T01:06:06;101316.81;;;5.26;100.00
3142;BME280;1581;51.568;6.998;2023-04-27T01:08:34;101316.09;;;5.33;100.00
3142;BME280;1581;51.568;6.998;2023-04-27T01:11:01;101306.78;;;5.39;100.00
3142;BME280;1581;51.568;6.998;2023-04-27T01:13:31;101312.34;;;5.36;100.00
3142;BME280;1581;51.568;6.998;2023-04-27T01:15:59;101318.59;;;5.25;100.00
3142;BME280;1581;51.568;6.998;2023-04-27T01:18:27;101317.09;;;5.32;100.00
3142;BME280;1581;51.568;6.998;2023-04-27T01:20:55;101318.47;;;5.27;100.00
3142;BME280;1581;51.568;6.998;2023-04-27T01:23:24;101321.25;;;5.25;100.00
3142;BME280;1581;51.568;6.998;2023-04-27T01:25:53;101318.19;;;5.20;100.00
3142;BME280;1581;51.568;6.998;2023-04-27T01:28:21;101305.53;;;5.14;100.00
3142;BME280;1581;51.568;6.998;2023-04-27T01:30:50;101317.91;;;5.14;100.00
3142;BME280;1581;51.568;6.998;2023-04-27T01:33:18;101327.78;;;5.12;100.00
3142;BME280;1581;51.568;6.998;2023-04-27T01:35:47;101328.50;;;5.14;100.00
3142;BME280;1581;51.568;6.998;2023-04-27T01:38:15;101334.31;;;5.17;100.00
3142;BME280;1581;51.568;6.998;2023-04-27T01:40:45;101326.13;;;5.20;100.00
3142;BME280;1581;51.568;6.998;2023-04-27T01:43:13;101332.22;;;5.30;100.00
3142;BME280;1581;51.568;6.998;2023-04-27T01:45:41;101324.31;;;5.30;100.00
3142;BME280;1581;51.568;6.998;2023-04-27T01:48:09;101329.88;;;5.18;100.00
3142;BME280;1581;51.568;6.998;2023-04-27T01:50:38;101328.06;;;5.18;100.00
3142;BME280;1581;51.568;6.998;2023-04-27T01:53:06;101327.38;;;5.26;100.00
3142;BME280;1581;51.568;6.998;2023-04-27T01:55:35;101328.50;;;5.23;100.00
3142;BME280;1581;51.568;6.998;2023-04-27T01:58:04;101336.84;;;5.19;100.00
3142;BME280;1581;51.568;6.998;2023-04-27T02:00:33;101340.88;;;5.13;100.00
3142;BME280;1581;51.568;6.998;2023-04-27T02:03:01;101332.78;;;5.24;100.00
3142;BME280;1581;51.568;6.998;2023-04-27T02:05:29;101329.59;;;5.21;100.00
3142;BME280;1581;51.568;6.998;2023-04-27T02:07:57;101332.66;;;5.07;100.00
3142;BME280;1581;51.568;6.998;2023-04-27T02:10:25;101341.16;;;5.10;100.00
3142;BME280;1581;51.568;6.998;2023-04-27T02:12:53;101341.53;;;5.15;100.00
3142;BME280;1581;51.568;6.998;2023-04-27T02:15:23;101339.34;;;5.20;100.00
3142;BME280;1581;51.568;6.998;2023-04-27T02:17:52;101340.00;;;5.32;100.00
3142;BME280;1581;51.568;6.998;2023-04-27T02:20:20;101331.53;;;5.38;100.00
3142;BME280;1581;51.568;6.998;2023-04-27T02:22:48;101331.19;;;5.60;100.00
3142;BME280;1581;51.568;6.998;2023-04-27T02:25:17;101336.34;;;5.61;100.00
3142;BME280;1581;51.568;6.998;2023-04-27T02:27:45;101327.31;;;5.64;100.00
3142;BME280;1581;51.568;6.998;2023-04-27T02:30:14;101324.91;;;5.70;100.00
3142;BME280;1581;51.568;6.998;2023-04-27T02:32:43;101323.09;;;5.71;100.00
3142;BME280;1581;51.568;6.998;2023-04-27T02:35:12;101324.25;;;5.78;100.00
3142;BME280;1581;51.568;6.998;2023-04-27T02:37:40;101323.66;;;5.84;100.00
3142;BME280;1581;51.568;6.998;2023-04-27T02:40:09;101318.91;;;5.87;100.00
3142;BME280;1581;51.568;6.998;2023-04-27T02:42:37;101317.50;;;5.93;100.00
3142;BME280;1581;51.568;6.998;2023-04-27T02:45:07;101316.53;;;5.84;100.00
3142;BME280;1581;51.568;6.998;2023-04-27T02:47:35;101315.03;;;5.82;100.00
3142;BME280;1581;51.568;6.998;2023-04-27T02:50:05;101316.00;;;5.71;100.00
3142;BME280;1581;51.568;6.998;2023-04-27T02:52:33;101323.94;;;5.71;100.00
3142;BME280;1581;51.568;6.998;2023-04-27T02:55:01;101326.56;;;5.90;100.00
3142;BME280;1581;51.568;6.998;2023-04-27T02:57:29;101318.09;;;5.87;100.00
3142;BME280;1581;51.568;6.998;2023-04-27T02:59:57;101312.81;;;5.87;100.00
3142;BME280;1581;51.568;6.998;2023-04-27T03:02:25;101313.22;;;5.82;100.00
3142;BME280;1581;51.568;6.998;2023-04-27T03:04:53;101311.94;;;5.86;100.00
3142;BME280;1581;51.568;6.998;2023-04-27T03:07:22;101301.19;;;5.97;100.00
3142;BME280;1581;51.568;6.998;2023-04-27T03:09:50;101299.97;;;5.92;100.00
3142;BME280;1581;51.568;6.998;2023-04-27T03:12:18;101296.44;;;6.00;100.00
3142;BME280;1581;51.568;6.998;2023-04-27T03:14:46;101298.81;;;5.94;100.00
3142;BME280;1581;51.568;6.998;2023-04-27T03:17:14;101294.56;;;5.74;100.00
3142;BME280;1581;51.568;6.998;2023-04-27T03:19:42;101298.63;;;5.69;100.00
3142;BME280;1581;51.568;6.998;2023-04-27T03:22:10;101303.22;;;5.67;100.00
3142;BME280;1581;51.568;6.998;2023-04-27T03:24:39;101302.28;;;5.58;100.00
3142;BME280;1581;51.568;6.998;2023-04-27T03:27:07;101302.97;;;5.51;100.00
3142;BME280;1581;51.568;6.998;2023-04-27T03:29:35;101295.78;;;5.43;100.00
3142;BME280;1581;51.568;6.998;2023-04-27T03:32:02;101303.94;;;5.50;100.00
3142;BME280;1581;51.568;6.998;2023-04-27T03:34:30;101299.25;;;5.44;100.00
3142;BME280;1581;51.568;6.998;2023-04-27T03:36:58;101308.00;;;5.44;100.00
3142;BME280;1581;51.568;6.998;2023-04-27T03:39:27;101309.97;;;5.33;100.00
3142;BME280;1581;51.568;6.998;2023-04-27T03:41:56;101314.28;;;5.24;100.00
3142;BME280;1581;51.568;6.998;2023-04-27T03:44:24;101311.66;;;5.15;100.00
3142;BME280;1581;51.568;6.998;2023-04-27T03:46:52;101315.97;;;5.07;100.00
3142;BME280;1581;51.568;6.998;2023-04-27T03:49:19;101320.00;;;5.10;100.00
3142;BME280;1581;51.568;6.998;2023-04-27T03:51:48;101322.66;;;5.01;100.00
3142;BME280;1581;51.568;6.998;2023-04-27T03:54:15;101320.56;;;4.95;100.00
3142;BME280;1581;51.568;6.998;2023-04-27T03:56:44;101321.28;;;4.97;100.00
3142;BME280;1581;51.568;6.998;2023-04-27T03:59:13;101321.38;;;4.96;100.00
3142;BME280;1581;51.568;6.998;2023-04-27T04:01:41;101326.53;;;4.88;100.00
3142;BME280;1581;51.568;6.998;2023-04-27T04:04:09;101327.81;;;4.84;100.00
3142;BME280;1581;51.568;6.998;2023-04-27T04:06:37;101334.31;;;4.80;100.00
3142;BME280;1581;51.568;6.998;2023-04-27T04:09:04;101340.59;;;4.88;100.00
3142;BME280;1581;51.568;6.998;2023-04-27T04:11:33;101347.38;;;4.72;100.00
3142;BME280;1581;51.568;6.998;2023-04-27T04:14:09;101348.31;;;4.61;100.00
3142;BME280;1581;51.568;6.998;2023-04-27T04:16:40;101348.19;;;4.63;100.00
3142;BME280;1581;51.568;6.998;2023-04-27T04:19:07;101342.63;;;4.56;100.00
3142;BME280;1581;51.568;6.998;2023-04-27T04:21:36;101348.19;;;4.63;100.00
3142;BME280;1581;51.568;6.998;2023-04-27T04:24:04;101341.25;;;4.71;100.00
3142;BME280;1581;51.568;6.998;2023-04-27T04:26:32;101340.53;;;4.69;100.00
3142;BME280;1581;51.568;6.998;2023-04-27T04:29:00;101342.06;;;4.62;100.00
3142;BME280;1581;51.568;6.998;2023-04-27T04:31:28;101339.47;;;4.72;100.00
3142;BME280;1581;51.568;6.998;2023-04-27T04:33:58;101351.50;;;4.65;100.00
3142;BME280;1581;51.568;6.998;2023-04-27T04:36:26;101351.91;;;4.60;100.00
3142;BME280;1581;51.568;6.998;2023-04-27T04:38:54;101353.47;;;4.63;100.00
3142;BME280;1581;51.568;6.998;2023-04-27T04:41:22;101346.22;;;4.65;100.00
3142;BME280;1581;51.568;6.998;2023-04-27T04:43:50;101347.63;;;4.69;100.00
3142;BME280;1581;51.568;6.998;2023-04-27T04:46:18;101349.88;;;4.73;100.00
3142;BME280;1581;51.568;6.998;2023-04-27T04:48:47;101353.34;;;4.74;100.00
3142;BME280;1581;51.568;6.998;2023-04-27T04:51:16;101356.56;;;4.77;100.00
3142;BME280;1581;51.568;6.998;2023-04-27T04:53:44;101358.78;;;4.82;100.00
3142;BME280;1581;51.568;6.998;2023-04-27T04:56:13;101352.53;;;4.92;100.00
3142;BME280;1581;51.568;6.998;2023-04-27T04:58:42;101348.78;;;5.04;100.00
3142;BME280;1581;51.568;6.998;2023-04-27T05:01:10;101346.56;;;5.00;100.00
3142;BME280;1581;51.568;6.998;2023-04-27T05:03:38;101349.75;;;5.03;100.00
3142;BME280;1581;51.568;6.998;2023-04-27T05:06:07;101350.06;;;5.19;100.00
3142;BME280;1581;51.568;6.998;2023-04-27T05:08:36;101354.88;;;5.33;100.00
3142;BME280;1581;51.568;6.998;2023-04-27T05:11:05;101358.22;;;5.35;100.00
3142;BME280;1581;51.568;6.998;2023-04-27T05:13:34;101357.09;;;5.56;100.00
3142;BME280;1581;51.568;6.998;2023-04-27T05:16:06;101361.94;;;5.61;100.00
3142;BME280;1581;51.568;6.998;2023-04-27T05:18:36;101359.69;;;5.75;100.00
3142;BME280;1581;51.568;6.998;2023-04-27T05:21:04;101362.91;;;5.88;100.00
3142;BME280;1581;51.568;6.998;2023-04-27T05:23:32;101375.25;;;5.97;100.00
3142;BME280;1581;51.568;6.998;2023-04-27T05:26:05;101371.31;;;6.10;100.00
3142;BME280;1581;51.568;6.998;2023-04-27T05:28:38;101381.44;;;6.24;100.00
3142;BME280;1581;51.568;6.998;2023-04-27T05:31:06;101387.00;;;6.21;100.00
3142;BME280;1581;51.568;6.998;2023-04-27T05:33:34;101383.63;;;6.29;100.00
3142;BME280;1581;51.568;6.998;2023-04-27T05:36:03;101384.72;;;6.36;100.00
3142;BME280;1581;51.568;6.998;2023-04-27T05:38:31;101389.25;;;6.53;100.00
3142;BME280;1581;51.568;6.998;2023-04-27T05:41:02;101389.91;;;6.55;100.00
3142;BME280;1581;51.568;6.998;2023-04-27T05:43:30;101394.03;;;6.67;100.00
3142;BME280;1581;51.568;6.998;2023-04-27T05:46:00;101392.25;;;6.67;100.00
3142;BME280;1581;51.568;6.998;2023-04-27T05:48:28;101398.25;;;6.86;100.00
3142;BME280;1581;51.568;6.998;2023-04-27T05:50:59;101396.34;;;6.96;100.00
3142;BME280;1581;51.568;6.998;2023-04-27T05:53:28;101394.63;;;7.05;100.00
3142;BME280;1581;51.568;6.998;2023-04-27T05:55:56;101399.03;;;7.14;100.00
3142;BME280;1581;51.568;6.998;2023-04-27T05:58:27;101394.66;;;7.22;100.00
3142;BME280;1581;51.568;6.998;2023-04-27T06:00:55;101395.31;;;7.24;100.00
3142;BME280;1581;51.568;6.998;2023-04-27T06:03:23;101403.94;;;7.26;100.00
3142;BME280;1581;51.568;6.998;2023-04-27T06:05:54;101407.06;;;7.39;100.00
3142;BME280;1581;51.568;6.998;2023-04-27T06:08:22;101408.84;;;7.56;100.00
3142;BME280;1581;51.568;6.998;2023-04-27T06:10:50;101412.59;;;7.63;100.00
3142;BME280;1581;51.568;6.998;2023-04-27T06:13:18;101409.53;;;7.75;100.00
3142;BME280;1581;51.568;6.998;2023-04-27T06:15:48;101416.16;;;7.79;100.00
3142;BME280;1581;51.568;6.998;2023-04-27T06:18:16;101406.63;;;7.86;100.00
3142;BME280;1581;51.568;6.998;2023-04-27T06:20:44;101415.41;;;7.87;100.00
3142;BME280;1581;51.568;6.998;2023-04-27T06:23:12;101415.63;;;7.93;99.80
3142;BME280;1581;51.568;6.998;2023-04-27T06:25:40;101416.66;;;8.18;98.19
3142;BME280;1581;51.568;6.998;2023-04-27T06:28:08;101412.75;;;8.30;97.61
3142;BME280;1581;51.568;6.998;2023-04-27T06:30:36;101404.16;;;8.44;96.87
3142;BME280;1581;51.568;6.998;2023-04-27T06:33:05;101408.66;;;8.43;97.02
3142;BME280;1581;51.568;6.998;2023-04-27T06:35:33;101407.88;;;8.51;96.52
3142;BME280;1581;51.568;6.998;2023-04-27T06:38:01;101408.84;;;8.50;95.33
3142;BME280;1581;51.568;6.998;2023-04-27T06:40:29;101411.22;;;8.60;94.55
3142;BME280;1581;51.568;6.998;2023-04-27T06:42:57;101407.09;;;8.66;93.58
3142;BME280;1581;51.568;6.998;2023-04-27T06:45:25;101407.63;;;8.69;93.39
3142;BME280;1581;51.568;6.998;2023-04-27T06:47:54;101410.59;;;8.74;92.53
3142;BME280;1581;51.568;6.998;2023-04-27T06:50:23;101413.16;;;8.84;91.80
3142;BME280;1581;51.568;6.998;2023-04-27T06:52:51;101410.50;;;8.92;90.91
3142;BME280;1581;51.568;6.998;2023-04-27T06:55:20;101410.88;;;8.97;89.36
3142;BME280;1581;51.568;6.998;2023-04-27T06:57:49;101407.22;;;9.06;89.00
3142;BME280;1581;51.568;6.998;2023-04-27T07:00:19;101405.88;;;9.02;88.25
3142;BME280;1581;51.568;6.998;2023-04-27T07:02:47;101405.06;;;9.01;86.25
3142;BME280;1581;51.568;6.998;2023-04-27T07:05:15;101411.06;;;9.11;85.86
3142;BME280;1581;51.568;6.998;2023-04-27T07:07:44;101408.25;;;9.21;84.76
3142;BME280;1581;51.568;6.998;2023-04-27T07:10:12;101400.13;;;9.30;84.64
3142;BME280;1581;51.568;6.998;2023-04-27T07:12:42;101399.63;;;9.35;84.61
3142;BME280;1581;51.568;6.998;2023-04-27T07:15:10;101395.81;;;9.45;83.59
3142;BME280;1581;51.568;6.998;2023-04-27T07:17:38;101394.97;;;9.52;82.18
3142;BME280;1581;51.568;6.998;2023-04-27T07:20:08;101405.81;;;9.59;81.91
3142;BME280;1581;51.568;6.998;2023-04-27T07:22:36;101399.63;;;9.58;79.09
3142;BME280;1581;51.568;6.998;2023-04-27T07:25:07;101410.31;;;9.66;77.31
3142;BME280;1581;51.568;6.998;2023-04-27T07:27:35;101410.13;;;9.52;73.33
3142;BME280;1581;51.568;6.998;2023-04-27T07:30:05;101397.50;;;9.62;74.45
3142;BME280;1581;51.568;6.998;2023-04-27T07:32:34;101402.63;;;9.71;73.04
3142;BME280;1581;51.568;6.998;2023-04-27T07:35:04;101396.47;;;9.87;70.26
3142;BME280;1581;51.568;6.998;2023-04-27T07:37:32;101401.44;;;9.98;69.98
3142;BME280;1581;51.568;6.998;2023-04-27T07:40:01;101398.63;;;9.91;64.25
3142;BME280;1581;51.568;6.998;2023-04-27T07:42:32;101392.16;;;10.02;66.38
3142;BME280;1581;51.568;6.998;2023-04-27T07:45:00;101396.31;;;10.04;67.22
3142;BME280;1581;51.568;6.998;2023-04-27T07:47:29;101394.97;;;10.08;69.35
3142;BME280;1581;51.568;6.998;2023-04-27T07:49:57;101401.59;;;10.20;67.42
3142;BME280;1581;51.568;6.998;2023-04-27T07:52:25;101406.75;;;10.14;65.11
3142;BME280;1581;51.568;6.998;2023-04-27T07:54:53;101407.75;;;10.28;66.04
3142;BME280;1581;51.568;6.998;2023-04-27T07:57:22;101399.41;;;10.31;63.02
3142;BME280;1581;51.568;6.998;2023-04-27T07:59:51;101401.38;;;10.37;64.01
3142;BME280;1581;51.568;6.998;2023-04-27T08:02:20;101411.97;;;10.61;64.08
3142;BME280;1581;51.568;6.998;2023-04-27T08:04:49;101401.59;;;10.66;63.78
3142;BME280;1581;51.568;6.998;2023-04-27T08:07:18;101405.41;;;10.72;63.66
3142;BME280;1581;51.568;6.998;2023-04-27T08:09:49;101399.88;;;10.81;61.25
3142;BME280;1581;51.568;6.998;2023-04-27T08:12:18;101396.00;;;10.92;58.60
3142;BME280;1581;51.568;6.998;2023-04-27T08:14:46;101396.06;;;11.06;56.58
3142;BME280;1581;51.568;6.998;2023-04-27T08:17:16;101398.69;;;10.84;55.32
3142;BME280;1581;51.568;6.998;2023-04-27T08:19:45;101391.75;;;11.05;55.04
3142;BME280;1581;51.568;6.998;2023-04-27T08:22:13;101390.38;;;10.87;53.57
3142;BME280;1581;51.568;6.998;2023-04-27T08:24:42;101388.59;;;11.02;55.82
3142;BME280;1581;51.568;6.998;2023-04-27T08:27:09;101395.59;;;11.03;53.35
3142;BME280;1581;51.568;6.998;2023-04-27T08:29:38;101391.66;;;11.21;53.09
3142;BME280;1581;51.568;6.998;2023-04-27T08:32:06;101391.19;;;11.17;52.30
3142;BME280;1581;51.568;6.998;2023-04-27T08:34:36;101380.78;;;11.22;53.00
3142;BME280;1581;51.568;6.998;2023-04-27T08:37:04;101381.97;;;11.42;53.60
3142;BME280;1581;51.568;6.998;2023-04-27T08:39:33;101388.66;;;11.69;51.50
3142;BME280;1581;51.568;6.998;2023-04-27T08:42:06;101384.13;;;11.69;51.82
3142;BME280;1581;51.568;6.998;2023-04-27T08:44:38;101386.25;;;11.74;51.22
3142;BME280;1581;51.568;6.998;2023-04-27T08:47:06;101382.16;;;12.00;51.53
3142;BME280;1581;51.568;6.998;2023-04-27T08:49:36;101376.22;;;12.27;50.96
3142;BME280;1581;51.568;6.998;2023-04-27T08:52:11;101376.56;;;12.38;49.17
3142;BME280;1581;51.568;6.998;2023-04-27T08:54:39;101387.91;;;12.55;48.77
3142;BME280;1581;51.568;6.998;2023-04-27T08:57:11;101381.63;;;12.48;48.41
3142;BME280;1581;51.568;6.998;2023-04-27T08:59:40;101381.06;;;12.81;48.81
3142;BME280;1581;51.568;6.998;2023-04-27T09:02:18;101385.56;;;12.95;48.00
3142;BME280;1581;51.568;6.998;2023-04-27T09:04:48;101381.69;;;12.97;45.76
3142;BME280;1581;51.568;6.998;2023-04-27T09:07:17;101377.84;;;13.21;46.79
3142;BME280;1581;51.568;6.998;2023-04-27T09:09:46;101375.47;;;13.53;46.54
3142;BME280;1581;51.568;6.998;2023-04-27T09:12:16;101375.59;;;13.66;46.22
3142;BME280;1581;51.568;6.998;2023-04-27T09:14:56;101377.88;;;13.48;44.62
3142;BME280;1581;51.568;6.998;2023-04-27T09:17:25;101368.59;;;13.92;44.50
3142;BME280;1581;51.568;6.998;2023-04-27T09:20:06;101364.13;;;13.99;44.34
3142;BME280;1581;51.568;6.998;2023-04-27T09:22:43;101361.78;;;14.17;43.25
3142;BME280;1581;51.568;6.998;2023-04-27T09:25:21;101366.34;;;14.23;43.14
3142;BME280;1581;51.568;6.998;2023-04-27T09:27:50;101367.25;;;14.30;42.80
3142;BME280;1581;51.568;6.998;2023-04-27T09:30:19;101374.66;;;14.28;42.72
3142;BME280;1581;51.568;6.998;2023-04-27T09:32:54;101362.19;;;14.48;42.78
3142;BME280;1581;51.568;6.998;2023-04-27T09:35:26;101370.44;;;14.53;43.23
3142;BME280;1581;51.568;6.998;2023-04-27T09:37:55;101363.31;;;14.66;42.35
3142;BME280;1581;51.568;6.998;2023-04-27T09:40:26;101365.84;;;14.87;41.46
3142;BME280;1581;51.568;6.998;2023-04-27T09:42:57;101363.03;;;15.08;42.00
3142;BME280;1581;51.568;6.998;2023-04-27T09:45:26;101355.59;;;15.10;39.81
3142;BME280;1581;51.568;6.998;2023-04-27T09:47:54;101368.50;;;15.28;39.54
3142;BME280;1581;51.568;6.998;2023-04-27T09:50:24;101359.97;;;15.18;39.63
3142;BME280;1581;51.568;6.998;2023-04-27T09:52:53;101361.28;;;15.54;39.03
3142;BME280;1581;51.568;6.998;2023-04-27T09:55:26;101350.97;;;15.77;38.79
3142;BME280;1581;51.568;6.998;2023-04-27T09:58:06;101352.59;;;15.84;39.15
3142;BME280;1581;51.568;6.998;2023-04-27T10:00:48;101352.34;;;16.25;39.17
3142;BME280;1581;51.568;6.998;2023-04-27T10:03:26;101348.81;;;16.43;37.85
3142;BME280;1581;51.568;6.998;2023-04-27T10:09:25;101358.81;;;16.80;36.96
3142;BME280;1581;51.568;6.998;2023-04-27T10:11:55;101346.09;;;16.56;36.11
3142;BME280;1581;51.568;6.998;2023-04-27T10:14:24;101361.13;;;16.70;35.70
3142;BME280;1581;51.568;6.998;2023-04-27T10:16:54;101348.03;;;16.37;33.93
3142;BME280;1581;51.568;6.998;2023-04-27T10:19:24;101345.16;;;16.82;36.89
3142;BME280;1581;51.568;6.998;2023-04-27T10:21:58;101341.66;;;16.75;36.69
3142;BME280;1581;51.568;6.998;2023-04-27T10:24:34;101332.78;;;17.12;34.76
3142;BME280;1581;51.568;6.998;2023-04-27T10:27:04;101334.81;;;17.47;35.18
3142;BME280;1581;51.568;6.998;2023-04-27T10:29:38;101331.41;;;17.27;33.49
3142;BME280;1581;51.568;6.998;2023-04-27T10:32:11;101327.28;;;17.31;33.46
3142;BME280;1581;51.568;6.998;2023-04-27T10:34:43;101322.34;;;17.22;33.75
3142;BME280;1581;51.568;6.998;2023-04-27T10:37:16;101325.31;;;17.07;31.90
3142;BME280;1581;51.568;6.998;2023-04-27T10:39:45;101323.78;;;18.75;31.05
3142;BME280;1581;51.568;6.998;2023-04-27T10:42:24;101328.47;;;23.10;28.24
3142;BME280;1581;51.568;6.998;2023-04-27T10:44:55;101353.47;;;27.84;22.01
3142;BME280;1581;51.568;6.998;2023-04-27T10:47:23;101351.19;;;27.91;22.61
3142;BME280;1581;51.568;6.998;2023-04-27T10:50:06;101364.69;;;29.83;20.24
3142;BME280;1581;51.568;6.998;2023-04-27T10:52:38;101365.69;;;30.77;19.15
3142;BME280;1581;51.568;6.998;2023-04-27T10:55:15;101369.97;;;31.10;18.14
3142;BME280;1581;51.568;6.998;2023-04-27T10:57:48;101365.28;;;30.97;18.13
3142;BME280;1581;51.568;6.998;2023-04-27T11:00:23;101357.75;;;30.89;17.76
3142;BME280;1581;51.568;6.998;2023-04-27T11:02:52;101344.06;;;28.47;19.94
3142;BME280;1581;51.568;6.998;2023-04-27T11:05:25;101333.16;;;25.16;21.92
3142;BME280;1581;51.568;6.998;2023-04-27T11:08:05;101325.75;;;24.40;24.19
3142;BME280;1581;51.568;6.998;2023-04-27T11:10:34;101321.22;;;23.16;24.39
3142;BME280;1581;51.568;6.998;2023-04-27T11:13:09;101328.72;;;23.09;25.20
3142;BME280;1581;51.568;6.998;2023-04-27T11:15:45;101318.31;;;23.27;24.73
3142;BME280;1581;51.568;6.998;2023-04-27T11:18:15;101320.53;;;22.40;24.63
3142;BME280;1581;51.568;6.998;2023-04-27T11:20:46;101316.97;;;22.82;25.25
3142;BME280;1581;51.568;6.998;2023-04-27T11:23:25;101318.34;;;23.90;24.46
3142;BME280;1581;51.568;6.998;2023-04-27T11:25:54;101335.22;;;27.26;21.15
3142;BME280;1581;51.568;6.998;2023-04-27T11:28:22;101338.09;;;28.86;19.84
3142;BME280;1581;51.568;6.998;2023-04-27T11:30:57;101339.78;;;29.43;19.15
3142;BME280;1581;51.568;6.998;2023-04-27T11:33:26;101350.38;;;30.45;18.99
3142;BME280;1581;51.568;6.998;2023-04-27T11:35:54;101344.22;;;29.20;18.46
3142;BME280;1581;51.568;6.998;2023-04-27T11:38:25;101345.69;;;30.18;18.03
3142;BME280;1581;51.568;6.998;2023-04-27T11:41:04;101346.81;;;30.98;17.45
3142;BME280;1581;51.568;6.998;2023-04-27T11:43:33;101350.75;;;31.67;17.40
3142;BME280;1581;51.568;6.998;2023-04-27T11:46:04;101351.84;;;32.10;16.75
3142;BME280;1581;51.568;6.998;2023-04-27T11:48:36;101356.44;;;33.01;16.84
3142;BME280;1581;51.568;6.998;2023-04-27T11:51:04;101343.06;;;32.69;16.12
3142;BME280;1581;51.568;6.998;2023-04-27T11:53:38;101348.41;;;33.72;15.41
3142;BME280;1581;51.568;6.998;2023-04-27T11:56:10;101352.91;;;35.95;14.89
3142;BME280;1581;51.568;6.998;2023-04-27T11:58:39;101351.16;;;35.58;14.03
3142;BME280;1581;51.568;6.998;2023-04-27T12:01:08;101345.84;;;36.42;13.12
3142;BME280;1581;51.568;6.998;2023-04-27T12:03:37;101333.47;;;37.11;13.10
3142;BME280;1581;51.568;6.998;2023-04-27T12:06:05;101331.50;;;37.00;13.33
3142;BME280;1581;51.568;6.998;2023-04-27T12:08:35;101336.59;;;38.03;13.19
3142;BME280;1581;51.568;6.998;2023-04-27T12:11:04;101330.19;;;37.60;12.55
3142;BME280;1581;51.568;6.998;2023-04-27T12:13:32;101332.38;;;39.36;13.51
3142;BME280;1581;51.568;6.998;2023-04-27T12:16:02;101329.56;;;39.17;12.47
3142;BME280;1581;51.568;6.998;2023-04-27T12:18:30;101348.47;;;40.92;12.31
3142;BME280;1581;51.568;6.998;2023-04-27T12:20:58;101333.94;;;41.09;11.32
3142;BME280;1581;51.568;6.998;2023-04-27T12:23:27;101333.81;;;40.51;11.42
3142;BME280;1581;51.568;6.998;2023-04-27T12:25:56;101338.34;;;41.69;11.35
3142;BME280;1581;51.568;6.998;2023-04-27T12:28:25;101340.94;;;42.21;10.20
3142;BME280;1581;51.568;6.998;2023-04-27T12:30:53;101349.09;;;43.47;9.89
3142;BME280;1581;51.568;6.998;2023-04-27T12:33:21;101349.38;;;44.51;9.42
3142;BME280;1581;51.568;6.998;2023-04-27T12:35:50;101345.97;;;45.54;9.72
3142;BME280;1581;51.568;6.998;2023-04-27T12:38:18;101343.34;;;45.91;9.51
3142;BME280;1581;51.568;6.998;2023-04-27T12:40:47;101321.41;;;42.74;10.61
3142;BME280;1581;51.568;6.998;2023-04-27T12:43:16;101325.50;;;42.87;9.16
3142;BME280;1581;51.568;6.998;2023-04-27T12:45:45;101325.94;;;42.43;10.06
3142;BME280;1581;51.568;6.998;2023-04-27T12:48:13;101303.72;;;39.96;10.61
3142;BME280;1581;51.568;6.998;2023-04-27T12:50:41;101292.34;;;38.14;11.31
3142;BME280;1581;51.568;6.998;2023-04-27T12:53:10;101294.25;;;37.28;12.73
3142;BME280;1581;51.568;6.998;2023-04-27T12:55:38;101297.22;;;37.74;12.54
3142;BME280;1581;51.568;6.998;2023-04-27T12:58:06;101302.94;;;38.08;12.44
3142;BME280;1581;51.568;6.998;2023-04-27T13:00:36;101291.47;;;36.77;11.93
3142;BME280;1581;51.568;6.998;2023-04-27T13:03:05;101301.22;;;39.72;11.48
3142;BME280;1581;51.568;6.998;2023-04-27T13:05:33;101309.47;;;40.73;9.99
3142;BME280;1581;51.568;6.998;2023-04-27T13:08:02;101306.41;;;40.82;11.24
3142;BME280;1581;51.568;6.998;2023-04-27T13:10:31;101292.13;;;39.75;11.42
3142;BME280;1581;51.568;6.998;2023-04-27T13:12:59;101298.72;;;41.05;11.13
3142;BME280;1581;51.568;6.998;2023-04-27T13:15:27;101307.63;;;41.72;10.69
3142;BME280;1581;51.568;6.998;2023-04-27T13:17:56;101286.88;;;37.75;12.72
3142;BME280;1581;51.568;6.998;2023-04-27T13:20:25;101271.44;;;34.65;13.91
3142;BME280;1581;51.568;6.998;2023-04-27T13:22:52;101270.22;;;34.00;14.49
3142;BME280;1581;51.568;6.998;2023-04-27T13:25:20;101250.50;;;32.71;15.38
3142;BME280;1581;51.568;6.998;2023-04-27T13:27:48;101257.00;;;33.01;14.85